Time;durP1;ratioP1;P1;durP2;ratioP2;P2;SDS_P1;SDS_P2;PMS_P1;PMS_P2;Temp;Humidity;BMP_temperature;BMP_pressure;BME280_temperature;BME280_humidity;BME280_pressure;Samples;Min_cycle;Max_cycle;Signal;HPM_P1;HPM_P2
2021/10/21 00:02:13;;;;;;;6.28;2.90;;;16.20;99.90;;;;;;5049039;28;20695;-59
2021/10/21 00:04:39;;;;;;;6.30;2.80;;;16.20;99.90;;;;;;5048339;28;20745;-59
2021/10/21 00:07:04;;;;;;;5.67;2.90;;;16.30;99.90;;;;;;5049210;28;20447;-59
2021/10/21 00:09:30;;;;;;;7.97;2.85;;;16.40;99.90;;;;;;5048796;28;20465;-60
2021/10/21 00:11:56;;;;;;;6.78;3.30;;;16.40;99.90;;;;;;5048900;28;20389;-59
2021/10/21 00:14:22;;;;;;;7.00;2.70;;;16.40;99.90;;;;;;5049152;28;20386;-58
2021/10/21 00:16:47;;;;;;;6.60;3.10;;;16.30;99.90;;;;;;5047106;28;20385;-58
2021/10/21 00:19:13;;;;;;;6.70;3.00;;;16.40;99.90;;;;;;5048180;28;20389;-58
2021/10/21 00:21:39;;;;;;;8.50;3.00;;;16.30;99.90;;;;;;5049116;28;20468;-58
2021/10/21 00:24:04;;;;;;;6.75;3.30;;;16.30;99.90;;;;;;5053229;28;20483;-58
2021/10/21 00:26:30;;;;;;;7.30;3.60;;;16.30;99.90;;;;;;5052506;28;20382;-59
2021/10/21 00:28:55;;;;;;;6.20;3.30;;;16.10;99.90;;;;;;5052369;28;20413;-58
2021/10/21 00:31:21;;;;;;;7.35;3.50;;;15.90;99.90;;;;;;5052797;28;20397;-58
2021/10/21 00:33:47;;;;;;;10.45;5.30;;;15.80;99.90;;;;;;5052002;28;20374;-58
2021/10/21 00:36:14;;;;;;;11.50;6.20;;;15.70;99.90;;;;;;5052796;28;20459;-58
2021/10/21 00:38:39;;;;;;;14.40;8.50;;;15.60;99.90;;;;;;5051559;28;20448;-58
2021/10/21 00:41:05;;;;;;;16.13;10.50;;;15.50;99.90;;;;;;5052554;28;20381;-58
2021/10/21 00:43:37;;;;;;;19.60;11.43;;;15.30;99.90;;;;;;5052284;28;20887;-59
2021/10/21 00:46:07;;;;;;;17.45;10.77;;;15.20;99.90;;;;;;5052881;28;20845;-58
2021/10/21 00:48:37;;;;;;;19.05;11.35;;;15.20;99.90;;;;;;5052305;28;20397;-59
2021/10/21 00:51:07;;;;;;;20.50;11.93;;;15.20;99.90;;;;;;5052539;28;20865;-57
2021/10/21 00:53:34;;;;;;;19.80;12.75;;;15.10;99.90;;;;;;5051979;28;20414;-59
2021/10/21 00:56:02;;;;;;;17.60;10.43;;;15.10;99.90;;;;;;5051135;28;20859;-58
2021/10/21 00:58:28;;;;;;;17.90;10.00;;;15.00;99.90;;;;;;5052152;28;20716;-57
2021/10/21 01:00:54;;;;;;;16.88;9.63;;;14.90;99.90;;;;;;5051440;28;20691;-58
2021/10/21 01:03:21;;;;;;;19.30;10.60;;;14.90;99.90;;;;;;5052352;28;20792;-58
2021/10/21 01:05:47;;;;;;;18.75;12.00;;;14.90;99.90;;;;;;5051234;28;20883;-58
2021/10/21 01:08:13;;;;;;;16.38;10.13;;;14.90;99.90;;;;;;5052039;28;20421;-58
2021/10/21 01:10:39;;;;;;;17.15;10.73;;;14.90;99.90;;;;;;5051677;28;20392;-58
2021/10/21 01:13:05;;;;;;;17.40;10.88;;;14.90;99.90;;;;;;5052403;28;20448;-58
2021/10/21 01:15:33;;;;;;;17.75;10.70;;;14.80;99.90;;;;;;5051588;28;20428;-59
2021/10/21 01:17:59;;;;;;;18.77;11.23;;;14.90;99.90;;;;;;5051399;28;20473;-58
2021/10/21 01:20:27;;;;;;;19.55;11.35;;;15.00;99.90;;;;;;5051994;28;20456;-58
2021/10/21 01:22:53;;;;;;;18.63;10.93;;;15.00;99.90;;;;;;5051262;28;20389;-57
2021/10/21 01:25:19;;;;;;;17.75;10.75;;;15.00;99.90;;;;;;5050600;28;20771;-58
2021/10/21 01:27:46;;;;;;;16.38;10.50;;;15.00;99.90;;;;;;5051129;28;20470;-57
2021/10/21 01:30:23;;;;;;;19.50;11.10;;;15.00;99.90;;;;;;5050571;28;20742;-58
2021/10/21 01:32:49;;;;;;;16.73;11.20;;;15.00;99.90;;;;;;5050356;28;20373;-57
2021/10/21 01:35:15;;;;;;;16.70;10.68;;;15.10;99.90;;;;;;5051669;28;20393;-58
2021/10/21 01:37:41;;;;;;;15.90;9.53;;;15.10;99.90;;;;;;5051157;28;20483;-58
2021/10/21 01:40:10;;;;;;;13.05;7.60;;;15.20;99.90;;;;;;5051604;28;20378;-58
2021/10/21 01:42:37;;;;;;;14.23;7.60;;;15.20;99.90;;;;;;5050620;28;20940;-58
2021/10/21 01:45:13;;;;;;;12.52;7.30;;;15.30;99.90;;;;;;5051713;28;20481;-58
2021/10/21 01:47:38;;;;;;;11.43;6.85;;;15.30;99.90;;;;;;5050699;28;20833;-58
2021/10/21 01:50:04;;;;;;;11.67;6.80;;;15.30;99.90;;;;;;5051244;28;20438;-58
2021/10/21 01:52:31;;;;;;;10.75;6.70;;;15.40;99.90;;;;;;5051394;28;20460;-58
2021/10/21 01:54:56;;;;;;;8.63;5.65;;;15.40;99.90;;;;;;5050562;28;20844;-58
2021/10/21 01:57:22;;;;;;;11.17;5.67;;;15.40;99.90;;;;;;5051278;28;20378;-58
2021/10/21 01:59:47;;;;;;;10.40;5.73;;;15.40;99.90;;;;;;5050496;28;20386;-58
2021/10/21 02:02:13;;;;;;;9.50;5.70;;;15.40;99.90;;;;;;5051445;28;20903;-58
2021/10/21 02:04:39;;;;;;;9.00;5.33;;;15.50;99.90;;;;;;5050134;28;20378;-58
2021/10/21 02:07:04;;;;;;;9.10;5.00;;;15.60;99.90;;;;;;5051619;28;20394;-58
2021/10/21 02:09:30;;;;;;;8.02;4.70;;;15.60;99.90;;;;;;5050908;28;20477;-58
2021/10/21 02:11:55;;;;;;;7.65;4.72;;;15.60;99.90;;;;;;5050161;28;20416;-57
2021/10/21 02:14:21;;;;;;;7.83;4.40;;;15.60;99.90;;;;;;5049716;28;20389;-58
2021/10/21 02:16:47;;;;;;;8.30;4.20;;;15.60;99.90;;;;;;5049283;28;20412;-57
2021/10/21 02:19:12;;;;;;;7.35;4.07;;;15.50;99.90;;;;;;5051295;28;20381;-58
2021/10/21 02:21:38;;;;;;;7.70;4.10;;;15.60;99.90;;;;;;5049748;28;20772;-58
2021/10/21 02:24:04;;;;;;;7.50;3.90;;;15.70;99.90;;;;;;5050533;28;20559;-58
2021/10/21 02:26:29;;;;;;;6.80;3.42;;;15.70;99.90;;;;;;5049513;28;20810;-58
2021/10/21 02:28:56;;;;;;;6.87;3.30;;;15.80;99.90;;;;;;5049876;28;21168;-58
2021/10/21 02:31:23;;;;;;;6.40;3.40;;;15.90;99.90;;;;;;5050761;28;20464;-58
2021/10/21 02:33:49;;;;;;;7.23;3.17;;;15.90;99.90;;;;;;5049668;28;20409;-58
2021/10/21 02:36:15;;;;;;;7.18;3.00;;;15.80;99.90;;;;;;5049430;28;20907;-58
2021/10/21 02:38:40;;;;;;;5.50;2.73;;;15.90;99.90;;;;;;5049430;28;20404;-58
2021/10/21 02:41:06;;;;;;;5.40;2.60;;;15.90;99.90;;;;;;5050358;28;20382;-58
2021/10/21 02:43:32;;;;;;;5.60;2.30;;;15.90;99.90;;;;;;5050579;28;20396;-58
2021/10/21 02:46:00;;;;;;;5.85;2.80;;;16.00;99.90;;;;;;5048790;28;20396;-58
2021/10/21 02:48:27;;;;;;;6.75;2.55;;;16.10;99.90;;;;;;5048828;28;20405;-58
2021/10/21 02:50:53;;;;;;;5.10;2.50;;;16.10;99.90;;;;;;5049798;28;20393;-58
2021/10/21 02:53:18;;;;;;;5.40;2.20;;;16.10;99.90;;;;;;5049718;28;20388;-58
2021/10/21 02:55:44;;;;;;;5.20;2.20;;;16.00;99.90;;;;;;5049380;28;20542;-58
2021/10/21 02:58:09;;;;;;;5.40;2.27;;;16.10;99.90;;;;;;5050277;28;20434;-58
2021/10/21 03:00:35;;;;;;;4.80;2.30;;;16.20;99.90;;;;;;5049460;28;20479;-60
2021/10/21 03:03:01;;;;;;;5.20;2.10;;;16.30;99.90;;;;;;5049906;28;20928;-58
2021/10/21 03:05:26;;;;;;;4.60;1.97;;;16.30;99.90;;;;;;5048888;28;20479;-58
2021/10/21 03:07:52;;;;;;;4.90;1.95;;;16.40;99.90;;;;;;5048643;28;21021;-58
2021/10/21 03:10:18;;;;;;;5.43;2.30;;;16.40;99.90;;;;;;5032117;28;20497;-58
2021/10/21 03:12:44;;;;;;;6.28;2.05;;;16.40;99.90;;;;;;5029391;28;20893;-58
2021/10/21 03:15:10;;;;;;;5.10;2.20;;;16.40;99.90;;;;;;5049770;28;20389;-58
2021/10/21 03:17:41;;;;;;;6.03;2.42;;;16.20;99.90;;;;;;5049392;28;20896;-59
2021/10/21 03:20:10;;;;;;;5.85;2.22;;;16.10;99.90;;;;;;5048528;28;20519;-57
2021/10/21 03:22:36;;;;;;;5.57;2.50;;;15.90;99.90;;;;;;5047829;28;20477;-59
2021/10/21 03:25:02;;;;;;;6.00;2.78;;;15.90;99.90;;;;;;5049135;28;20472;-57
2021/10/21 03:27:28;;;;;;;4.88;2.50;;;15.80;99.90;;;;;;5049584;28;20468;-57
2021/10/21 03:29:53;;;;;;;7.95;2.90;;;15.80;99.90;;;;;;5047111;28;21246;-57
2021/10/21 03:32:19;;;;;;;6.63;2.50;;;15.70;99.90;;;;;;5049391;28;20880;-58
2021/10/21 03:34:44;;;;;;;5.90;2.73;;;15.70;99.90;;;;;;5048686;28;20384;-58
2021/10/21 03:37:10;;;;;;;5.80;2.65;;;15.70;99.90;;;;;;5049498;28;20420;-57
2021/10/21 03:39:36;;;;;;;5.87;2.90;;;15.60;99.90;;;;;;5048990;28;20424;-59
2021/10/21 03:42:02;;;;;;;6.30;2.90;;;15.60;99.90;;;;;;5048201;28;20868;-58
2021/10/21 03:44:28;;;;;;;5.75;2.40;;;15.60;99.90;;;;;;5041059;28;20377;-57
2021/10/21 03:46:53;;;;;;;5.45;2.80;;;15.60;99.90;;;;;;5047692;28;20397;-58
2021/10/21 03:49:19;;;;;;;4.67;1.87;;;15.60;99.90;;;;;;5029942;28;20447;-58
2021/10/21 03:51:45;;;;;;;4.60;1.70;;;15.50;99.90;;;;;;5048562;28;20392;-57
2021/10/21 03:54:13;;;;;;;4.00;1.10;;;15.50;99.90;;;;;;5049103;28;20389;-56
2021/10/21 03:56:41;;;;;;;4.20;1.10;;;15.60;99.90;;;;;;5048227;28;20386;-56
2021/10/21 03:59:07;;;;;;;3.83;0.80;;;15.50;99.90;;;;;;5048928;28;20879;-55
2021/10/21 04:01:32;;;;;;;4.77;1.50;;;15.50;99.90;;;;;;5047496;28;20393;-55
2021/10/21 04:03:58;;;;;;;5.80;0.90;;;15.50;99.90;;;;;;5039944;28;20419;-55
2021/10/21 04:06:24;;;;;;;3.90;0.90;;;15.50;99.90;;;;;;5038306;28;20384;-55
2021/10/21 04:08:49;;;;;;;3.50;0.60;;;15.40;99.90;;;;;;5044242;28;20466;-55
2021/10/21 04:11:15;;;;;;;5.30;0.70;;;15.50;99.90;;;;;;5038713;28;20381;-54
2021/10/21 04:13:40;;;;;;;9.13;0.93;;;15.30;99.90;;;;;;5046842;28;20567;-54
2021/10/21 04:16:06;;;;;;;4.95;0.70;;;15.40;99.90;;;;;;5041304;28;20758;-55
2021/10/21 04:18:32;;;;;;;4.17;0.80;;;15.20;99.90;;;;;;5047912;28;20389;-54
2021/10/21 04:20:57;;;;;;;6.05;1.15;;;15.20;99.90;;;;;;5035108;28;20398;-55
2021/10/21 04:23:23;;;;;;;6.22;0.93;;;15.10;99.90;;;;;;5028855;28;20389;-54
2021/10/21 04:25:49;;;;;;;7.10;1.10;;;15.00;99.90;;;;;;5027588;28;20955;-54
2021/10/21 04:28:16;;;;;;;5.80;1.40;;;14.90;99.90;;;;;;5028568;28;20502;-55
2021/10/21 04:30:42;;;;;;;4.43;0.70;;;14.90;99.90;;;;;;5028268;28;20414;-54
2021/10/21 04:33:07;;;;;;;4.57;0.80;;;14.80;99.90;;;;;;5028519;28;20399;-55
2021/10/21 04:35:33;;;;;;;4.40;0.90;;;14.80;99.90;;;;;;5028530;28;20401;-54
2021/10/21 04:37:59;;;;;;;4.03;0.70;;;14.80;99.90;;;;;;5039838;28;20416;-55
2021/10/21 04:40:24;;;;;;;4.50;1.20;;;14.60;99.90;;;;;;5048253;28;20386;-54
2021/10/21 04:42:50;;;;;;;6.07;0.70;;;14.50;99.90;;;;;;5040102;28;20460;-53
2021/10/21 04:45:16;;;;;;;4.20;0.80;;;14.50;99.90;;;;;;5029639;28;20490;-54
2021/10/21 04:47:41;;;;;;;5.80;0.70;;;14.40;99.90;;;;;;5027380;28;20403;-55
2021/10/21 04:50:07;;;;;;;7.27;1.10;;;14.40;99.90;;;;;;5028380;28;20407;-55
2021/10/21 04:52:35;;;;;;;7.10;1.00;;;14.30;99.90;;;;;;5028422;28;20863;-54
2021/10/21 04:55:01;;;;;;;6.00;1.00;;;14.20;99.90;;;;;;5037029;28;20491;-54
2021/10/21 04:57:26;;;;;;;6.18;0.85;;;14.10;99.90;;;;;;5026770;28;20407;-54
2021/10/21 04:59:52;;;;;;;4.60;0.80;;;14.10;99.90;;;;;;5027161;28;20448;-54
2021/10/21 05:02:18;;;;;;;6.22;1.08;;;14.00;99.90;;;;;;5036080;28;20405;-54
2021/10/21 05:04:43;;;;;;;4.90;0.80;;;13.90;99.90;;;;;;5033437;28;20387;-54
2021/10/21 05:07:09;;;;;;;5.00;0.90;;;14.00;99.90;;;;;;5047577;28;20397;-54
2021/10/21 05:09:34;;;;;;;7.90;1.17;;;13.90;99.90;;;;;;5051828;28;20429;-54
2021/10/21 05:12:00;;;;;;;6.50;1.00;;;14.00;99.90;;;;;;5051514;28;20857;-55
2021/10/21 05:14:26;;;;;;;7.73;1.00;;;13.90;99.90;;;;;;5052154;28;20378;-56
2021/10/21 05:16:51;;;;;;;7.80;1.25;;;13.80;99.90;;;;;;5051163;28;20464;-56
2021/10/21 05:19:17;;;;;;;7.05;0.82;;;13.80;99.90;;;;;;5051986;28;20389;-54
2021/10/21 05:21:42;;;;;;;5.10;1.00;;;13.90;99.90;;;;;;5050889;28;20382;-54
2021/10/21 05:24:08;;;;;;;5.90;1.30;;;13.80;99.90;;;;;;5051731;28;20385;-55
2021/10/21 05:26:34;;;;;;;6.18;1.60;;;13.80;99.90;;;;;;5050345;28;20405;-55
2021/10/21 05:29:00;;;;;;;8.40;1.00;;;13.70;99.90;;;;;;5045639;28;20988;-55
2021/10/21 05:31:25;;;;;;;5.43;0.90;;;13.70;99.90;;;;;;5035192;28;20852;-54
2021/10/21 05:33:51;;;;;;;10.27;1.40;;;13.70;99.90;;;;;;5050848;28;20374;-54
2021/10/21 05:36:16;;;;;;;7.07;0.93;;;13.70;99.90;;;;;;5051221;28;20860;-54
2021/10/21 05:38:42;;;;;;;7.10;1.05;;;13.70;99.90;;;;;;5050593;28;20493;-55
2021/10/21 05:41:08;;;;;;;6.00;1.10;;;13.60;99.90;;;;;;5050555;28;20749;-55
2021/10/21 05:43:33;;;;;;;7.20;1.20;;;13.60;99.90;;;;;;5050185;28;20393;-55
2021/10/21 05:45:59;;;;;;;6.05;1.00;;;13.50;99.90;;;;;;5051123;28;20382;-55
2021/10/21 05:48:25;;;;;;;5.77;1.10;;;13.50;99.90;;;;;;5041368;28;20413;-55
2021/10/21 05:50:50;;;;;;;4.93;0.90;;;13.50;99.90;;;;;;5042169;28;20468;-55
2021/10/21 05:53:17;;;;;;;6.37;1.00;;;13.60;99.90;;;;;;5049613;28;20477;-56
2021/10/21 05:55:43;;;;;;;5.80;1.13;;;13.60;99.90;;;;;;5043930;28;20406;-55
2021/10/21 05:58:12;;;;;;;9.77;1.10;;;13.60;99.90;;;;;;5047072;28;20385;-55
2021/10/21 06:00:38;;;;;;;6.20;1.60;;;13.60;99.90;;;;;;5050799;28;20951;-57
2021/10/21 06:03:03;;;;;;;6.47;1.00;;;13.60;99.90;;;;;;5050089;28;20460;-56
2021/10/21 06:05:29;;;;;;;8.40;1.30;;;14.90;99.90;;;;;;5050928;28;20397;-55
2021/10/21 06:07:56;;;;;;;9.20;2.00;;;13.60;99.90;;;;;;5050167;28;20715;-54
2021/10/21 06:10:24;;;;;;;9.45;1.70;;;13.70;99.90;;;;;;5049919;28;20433;-55
2021/10/21 06:12:50;;;;;;;7.27;1.30;;;13.70;99.90;;;;;;5049046;28;20466;-55
2021/10/21 06:15:17;;;;;;;4.83;1.00;;;13.60;99.90;;;;;;5033580;28;20448;-55
2021/10/21 06:17:44;;;;;;;5.80;1.00;;;13.60;99.90;;;;;;5049581;28;20389;-57
2021/10/21 06:20:14;;;;;;;8.23;1.35;;;13.60;99.90;;;;;;5048639;28;20401;-56
2021/10/21 06:22:40;;;;;;;6.70;1.42;;;13.60;99.90;;;;;;5050253;28;20396;-58
2021/10/21 06:25:07;;;;;;;9.52;1.23;;;13.60;99.90;;;;;;5050181;28;20393;-56
2021/10/21 06:27:33;;;;;;;7.97;1.38;;;13.60;99.90;;;;;;5050913;28;20377;-56
2021/10/21 06:29:59;;;;;;;5.60;0.90;;;13.70;99.90;;;;;;5081977;28;20409;-56
2021/10/21 06:32:25;;;;;;;6.40;1.00;;;13.60;99.90;;;;;;5041216;28;20464;-56
2021/10/21 06:34:51;;;;;;;5.47;1.40;;;13.50;99.90;;;;;;5044360;28;20455;-56
2021/10/21 06:37:17;;;;;;;9.05;1.30;;;13.60;99.90;;;;;;5042465;28;20430;-56
2021/10/21 06:39:43;;;;;;;7.40;1.00;;;13.70;99.90;;;;;;5047280;28;20441;-58
2021/10/21 06:42:08;;;;;;;8.38;0.93;;;13.70;99.90;;;;;;5041003;28;20478;-56
2021/10/21 06:44:34;;;;;;;4.93;0.80;;;13.70;99.90;;;;;;5029969;28;20384;-56
2021/10/21 06:47:01;;;;;;;8.75;1.05;;;13.70;99.90;;;;;;5029380;28;20371;-56
2021/10/21 06:49:27;;;;;;;6.60;1.00;;;13.70;99.90;;;;;;5030120;28;20446;-56
2021/10/21 06:51:53;;;;;;;5.60;0.80;;;13.80;99.90;;;;;;5029567;28;20415;-56
2021/10/21 06:54:18;;;;;;;10.45;1.30;;;13.80;99.90;;;;;;5029905;28;20523;-56
2021/10/21 06:56:44;;;;;;;5.80;1.10;;;14.00;99.90;;;;;;5035863;28;20386;-56
2021/10/21 06:59:10;;;;;;;7.45;1.08;;;14.40;99.90;;;;;;5049738;28;20389;-56
2021/10/21 07:01:36;;;;;;;10.13;1.10;;;14.90;99.90;;;;;;5049417;28;20980;-56
2021/10/21 07:04:03;;;;;;;6.70;1.00;;;15.00;99.90;;;;;;5048607;28;20460;-56
2021/10/21 07:06:29;;;;;;;7.78;1.00;;;14.70;99.90;;;;;;5049611;28;20391;-57
2021/10/21 07:08:55;;;;;;;6.57;1.10;;;14.60;99.90;;;;;;5047534;28;20421;-57
2021/10/21 07:11:21;;;;;;;5.78;0.93;;;15.10;99.90;;;;;;5032870;28;20418;-56
2021/10/21 07:13:47;;;;;;;13.60;1.20;;;15.40;99.90;;;;;;5048647;28;20389;-56
2021/10/21 07:16:12;;;;;;;7.20;1.13;;;15.50;99.90;;;;;;5046751;28;20444;-56
2021/10/21 07:18:38;;;;;;;4.40;1.00;;;15.50;99.90;;;;;;5049507;28;20389;-57
2021/10/21 07:21:04;;;;;;;9.07;1.00;;;15.60;99.90;;;;;;5047334;28;20381;-56
2021/10/21 07:23:30;;;;;;;5.18;0.90;;;15.90;99.90;;;;;;5049395;28;20390;-56
2021/10/21 07:25:55;;;;;;;4.50;0.70;;;15.80;99.90;;;;;;5048795;28;20481;-56
2021/10/21 07:28:22;;;;;;;6.95;0.90;;;15.80;99.90;;;;;;5048146;28;20501;-56
2021/10/21 07:30:54;;;;;;;4.80;0.90;;;15.70;99.90;;;;;;5037954;28;21157;-56
2021/10/21 07:33:19;;;;;;;10.15;1.38;;;15.80;99.90;;;;;;5046200;28;20485;-56
2021/10/21 07:35:45;;;;;;;5.60;1.30;;;15.10;99.90;;;;;;5046274;28;20409;-56
2021/10/21 07:38:11;;;;;;;5.65;0.70;;;14.70;99.90;;;;;;5043247;28;20405;-57
2021/10/21 07:40:36;;;;;;;8.97;0.90;;;14.70;99.90;;;;;;5048178;28;20401;-56
2021/10/21 07:43:02;;;;;;;3.90;0.60;;;14.70;99.90;;;;;;5046705;28;20373;-56
2021/10/21 07:45:28;;;;;;;7.13;1.13;;;14.90;99.90;;;;;;5047272;28;20496;-56
2021/10/21 07:47:53;;;;;;;5.60;1.00;;;14.80;99.90;;;;;;5047876;28;20864;-56
2021/10/21 07:50:19;;;;;;;5.28;1.00;;;15.20;99.90;;;;;;5049592;28;20536;-56
2021/10/21 07:52:46;;;;;;;5.00;0.60;;;15.50;99.90;;;;;;5046955;28;20423;-57
2021/10/21 07:55:13;;;;;;;5.10;0.70;;;15.30;99.90;;;;;;5048757;28;20420;-57
2021/10/21 07:57:40;;;;;;;4.50;1.05;;;15.90;99.90;;;;;;5046775;28;20420;-57
2021/10/21 08:00:09;;;;;;;5.47;0.65;;;15.60;99.90;;;;;;5045911;28;20409;-56
2021/10/21 08:02:35;;;;;;;5.97;0.60;;;14.90;99.90;;;;;;5044854;28;20412;-56
2021/10/21 08:05:01;;;;;;;3.92;0.60;;;15.10;99.90;;;;;;5045901;28;20383;-57
2021/10/21 08:07:26;;;;;;;4.97;0.70;;;15.70;99.90;;;;;;5045317;28;20492;-58
2021/10/21 08:09:52;;;;;;;5.30;0.70;;;15.10;99.90;;;;;;5045225;28;20418;-57
2021/10/21 08:12:18;;;;;;;5.10;0.70;;;14.90;99.90;;;;;;5041126;28;20521;-57
2021/10/21 08:14:43;;;;;;;6.17;1.10;;;14.70;99.90;;;;;;5042341;28;20393;-59
2021/10/21 08:17:09;;;;;;;4.60;0.80;;;14.50;99.90;;;;;;5046281;28;20884;-57
2021/10/21 08:19:35;;;;;;;6.88;1.17;;;14.90;99.90;;;;;;5045142;28;20765;-56
2021/10/21 08:22:02;;;;;;;5.40;0.70;;;15.20;99.90;;;;;;5044570;28;20397;-57
2021/10/21 08:24:28;;;;;;;4.32;0.60;;;15.30;99.90;;;;;;5040581;28;20405;-57
2021/10/21 08:26:54;;;;;;;4.28;1.00;;;15.20;99.90;;;;;;5043704;28;20389;-56
2021/10/21 08:29:24;;;;;;;5.80;0.80;;;15.20;99.90;;;;;;5047907;28;20432;-57
2021/10/21 08:31:52;;;;;;;6.40;0.80;;;15.20;99.90;;;;;;5047185;28;20400;-57
2021/10/21 08:34:18;;;;;;;4.77;0.67;;;15.10;99.90;;;;;;5048301;28;20394;-57
2021/10/21 08:36:44;;;;;;;5.60;1.10;;;14.90;99.90;;;;;;5046413;28;20519;-59
2021/10/21 08:39:09;;;;;;;6.47;1.00;;;14.20;99.90;;;;;;5048793;28;20386;-56
2021/10/21 08:41:36;;;;;;;3.80;0.70;;;14.80;99.90;;;;;;5048351;28;20866;-56
2021/10/21 08:44:01;;;;;;;4.30;0.80;;;15.10;99.90;;;;;;5050688;28;20407;-58
2021/10/21 08:46:28;;;;;;;5.40;0.50;;;14.70;99.90;;;;;;5050805;28;20710;-57
2021/10/21 08:48:58;;;;;;;4.90;0.68;;;15.10;99.90;;;;;;5051716;28;20447;-57
2021/10/21 08:51:24;;;;;;;3.60;0.50;;;15.70;99.90;;;;;;5052127;28;20856;-56
2021/10/21 08:53:50;;;;;;;3.70;0.60;;;15.40;99.90;;;;;;5051515;28;20386;-56
2021/10/21 08:56:23;;;;;;;5.20;0.50;;;15.80;99.90;;;;;;5052330;28;20437;-56
2021/10/21 08:58:50;;;;;;;4.50;0.45;;;15.60;99.90;;;;;;5051484;28;20393;-56
2021/10/21 09:01:20;;;;;;;3.78;0.68;;;15.20;99.90;;;;;;5052685;28;20382;-57
2021/10/21 09:04:00;;;;;;;4.60;0.80;;;15.70;99.90;;;;;;5051353;28;20393;-58
2021/10/21 09:06:33;;;;;;;4.03;0.60;;;16.20;99.90;;;;;;5051596;28;20392;-57
2021/10/21 09:08:59;;;;;;;3.85;0.80;;;15.90;99.90;;;;;;5051428;28;20457;-57
2021/10/21 09:11:26;;;;;;;3.90;0.70;;;15.80;99.90;;;;;;5052027;28;20554;-57
2021/10/21 09:14:10;;;;;;;4.05;0.70;;;15.90;99.90;;;;;;5051571;28;20389;-57
2021/10/21 09:16:37;;;;;;;3.80;0.70;;;15.70;99.90;;;;;;5052404;28;20398;-57
2021/10/21 09:19:28;;;;;;;4.95;0.60;;;15.50;99.90;;;;;;5051842;28;20574;-57
2021/10/21 09:21:55;;;;;;;4.18;0.70;;;15.80;99.90;;;;;;5043476;28;20403;-56
2021/10/21 09:24:26;;;;;;;4.25;0.80;;;14.90;99.90;;;;;;5048406;28;20791;-57
2021/10/21 09:27:01;;;;;;;4.50;0.60;;;15.00;99.90;;;;;;5051722;28;20397;-56
2021/10/21 09:29:27;;;;;;;3.60;0.47;;;15.00;99.90;;;;;;5047621;28;20943;-57
2021/10/21 09:32:11;;;;;;;4.15;0.60;;;15.10;99.90;;;;;;5045298;28;20413;-56
2021/10/21 09:34:56;;;;;;;3.80;0.70;;;15.10;99.90;;;;;;5051060;28;20389;-57
2021/10/21 09:37:27;;;;;;;3.60;0.70;;;15.20;99.90;;;;;;5049621;28;20405;-57
2021/10/21 09:39:58;;;;;;;3.70;0.67;;;15.70;99.90;;;;;;5051057;28;20887;-57
2021/10/21 09:42:44;;;;;;;5.70;0.60;;;15.70;99.90;;;;;;5051722;28;20853;-57
2021/10/21 09:45:17;;;;;;;4.10;0.60;;;15.40;99.90;;;;;;5051215;28;20393;-57
2021/10/21 09:47:49;;;;;;;4.10;0.60;;;15.80;99.90;;;;;;5066339;28;20395;-59
2021/10/21 09:50:45;;;;;;;4.00;0.80;;;16.20;99.90;;;;;;5051379;28;20741;-57
2021/10/21 09:53:20;;;;;;;3.90;0.77;;;16.10;99.90;;;;;;5050823;28;20397;-57
2021/10/21 09:55:48;;;;;;;6.80;0.80;;;16.30;99.90;;;;;;5050261;28;20865;-60
2021/10/21 09:58:16;;;;;;;4.10;0.80;;;16.60;99.90;;;;;;5051117;28;20889;-57
2021/10/21 10:00:43;;;;;;;4.60;0.90;;;15.80;99.90;;;;;;5050925;28;20889;-59
2021/10/21 10:03:14;;;;;;;6.68;1.10;;;15.90;99.90;;;;;;5050020;28;20401;-57
2021/10/21 10:05:45;;;;;;;6.30;0.80;;;15.60;99.90;;;;;;5050840;28;20409;-57
2021/10/21 10:08:10;;;;;;;5.32;1.05;;;15.60;99.90;;;;;;5050346;28;20421;-57
2021/10/21 10:10:41;;;;;;;6.80;1.20;;;15.60;99.90;;;;;;5083277;28;20435;-57
2021/10/21 10:13:09;;;;;;;6.80;0.90;;;16.10;99.90;;;;;;5050479;28;20922;-57
2021/10/21 10:15:36;;;;;;;4.60;1.10;;;15.90;99.90;;;;;;5050946;28;20382;-57
2021/10/21 10:18:05;;;;;;;5.30;1.15;;;15.30;99.90;;;;;;5049832;28;20390;-57
2021/10/21 10:20:31;;;;;;;5.30;1.00;;;15.20;99.90;;;;;;5051204;28;20861;-58
2021/10/21 10:23:00;;;;;;;4.20;1.00;;;15.80;99.90;;;;;;5049978;28;20434;-57
2021/10/21 10:25:26;;;;;;;4.80;0.90;;;15.70;99.90;;;;;;5050436;28;20407;-57
2021/10/21 10:28:06;;;;;;;6.07;1.10;;;16.10;99.90;;;;;;5049644;28;20378;-58
2021/10/21 10:30:48;;;;;;;5.47;1.20;;;16.40;99.90;;;;;;5050393;28;20405;-58
2021/10/21 10:33:34;;;;;;;6.90;1.20;;;16.30;99.90;;;;;;5050549;28;20749;-57
2021/10/21 10:36:27;;;;;;;5.40;1.00;;;16.40;99.90;;;;;;5045390;28;20445;-58
2021/10/21 10:39:02;;;;;;;6.57;1.43;;;16.80;99.90;;;;;;5049333;28;20451;-57
2021/10/21 10:41:52;;;;;;;4.20;1.00;;;16.80;99.90;;;;;;5050535;28;20382;-57
2021/10/21 10:44:36;;;;;;;6.35;1.08;;;16.60;99.90;;;;;;5082727;28;20385;-57
2021/10/21 10:47:04;;;;;;;4.20;1.10;;;16.00;99.90;;;;;;5049328;28;20469;-57
2021/10/21 10:49:39;;;;;;;5.83;1.60;;;15.30;99.90;;;;;;5050266;28;20459;-57
2021/10/21 10:52:05;;;;;;;5.90;1.20;;;15.40;99.90;;;;;;5049230;28;20562;-57
2021/10/21 10:54:43;;;;;;;5.90;1.00;;;15.90;99.90;;;;;;5050094;28;20456;-57
2021/10/21 10:57:25;;;;;;;5.63;1.20;;;16.00;99.90;;;;;;5039392;28;20989;-57
2021/10/21 10:59:55;;;;;;;6.30;1.70;;;16.30;99.90;;;;;;5029471;28;20387;-57
2021/10/21 11:02:32;;;;;;;7.40;1.30;;;16.10;99.90;;;;;;5030089;28;20383;-57
2021/10/21 11:05:03;;;;;;;5.30;1.20;;;16.00;99.90;;;;;;5028883;28;20509;-57
2021/10/21 11:07:39;;;;;;;5.70;1.30;;;16.40;99.90;;;;;;5029880;28;20532;-57
2021/10/21 11:10:18;;;;;;;6.03;1.20;;;16.60;99.90;;;;;;5028176;28;20454;-57
2021/10/21 11:12:49;;;;;;;5.05;1.23;;;16.20;99.70;;;;;;5029809;28;20383;-59
2021/10/21 11:15:30;;;;;;;6.60;1.30;;;15.90;99.90;;;;;;5061814;28;20387;-57
2021/10/21 11:17:57;;;;;;;5.70;1.00;;;15.50;99.90;;;;;;5029249;28;20441;-57
2021/10/21 11:20:31;;;;;;;6.03;1.30;;;15.70;99.90;;;;;;5030408;28;20382;-58
2021/10/21 11:23:02;;;;;;;4.40;1.10;;;15.40;99.90;;;;;;5029210;28;20391;-57
2021/10/21 11:25:32;;;;;;;4.82;1.45;;;15.50;99.90;;;;;;5029572;28;20406;-57
2021/10/21 11:28:00;;;;;;;5.78;1.40;;;15.70;99.90;;;;;;5029084;28;20391;-56
2021/10/21 11:30:31;;;;;;;4.65;0.93;;;15.50;99.90;;;;;;5030174;28;20862;-58
2021/10/21 11:32:59;;;;;;;7.32;1.30;;;15.20;99.50;;;;;;5028945;28;20386;-56
2021/10/21 11:35:28;;;;;;;5.68;1.10;;;15.20;99.90;;;;;;5029717;28;20406;-57
2021/10/21 11:38:11;;;;;;;5.57;1.10;;;15.20;99.90;;;;;;5028783;28;20936;-56
2021/10/21 11:40:45;;;;;;;4.80;1.25;;;15.00;99.80;;;;;;5029384;28;20395;-57
2021/10/21 11:43:23;;;;;;;6.75;1.40;;;15.40;99.80;;;;;;5027969;28;20387;-56
2021/10/21 11:45:56;;;;;;;6.53;1.20;;;15.30;99.70;;;;;;5028742;28;20529;-58
2021/10/21 11:48:29;;;;;;;4.65;1.00;;;15.60;98.10;;;;;;5061049;28;20937;-57
2021/10/21 11:50:55;;;;;;;6.53;1.30;;;15.60;99.00;;;;;;5028564;28;20921;-56
2021/10/21 11:53:22;;;;;;;6.38;1.33;;;15.30;98.50;;;;;;5029481;28;20376;-56
2021/10/21 11:55:50;;;;;;;5.05;1.40;;;15.20;98.50;;;;;;5028582;28;20384;-60
2021/10/21 11:58:24;;;;;;;4.10;1.10;;;15.10;99.90;;;;;;5048667;28;20481;-56
2021/10/21 12:00:52;;;;;;;4.90;1.10;;;14.90;99.90;;;;;;5048542;28;20385;-57
2021/10/21 12:03:18;;;;;;;8.23;1.20;;;14.90;99.90;;;;;;5049260;28;20381;-57
2021/10/21 12:05:44;;;;;;;4.90;1.30;;;15.20;99.70;;;;;;5081004;28;20719;-57
2021/10/21 12:08:12;;;;;;;4.43;1.30;;;15.40;98.30;;;;;;5048429;28;20409;-57
2021/10/21 12:10:41;;;;;;;6.97;1.30;;;15.40;98.30;;;;;;5080719;28;20409;-57
2021/10/21 12:13:07;;;;;;;6.37;1.27;;;15.50;98.30;;;;;;5048326;28;20435;-57
2021/10/21 12:15:35;;;;;;;5.53;1.30;;;15.80;98.40;;;;;;5048815;28;20443;-57
2021/10/21 12:18:06;;;;;;;5.80;1.50;;;15.70;98.50;;;;;;5051499;28;20373;-58
2021/10/21 12:20:40;;;;;;;4.20;1.13;;;15.40;97.50;;;;;;5053061;28;20805;-57
2021/10/21 12:23:17;;;;;;;5.90;1.38;;;15.80;96.80;;;;;;5052174;28;20463;-57
2021/10/21 12:25:44;;;;;;;5.68;1.40;;;15.60;96.30;;;;;;5053118;28;20480;-57
2021/10/21 12:28:10;;;;;;;4.95;1.02;;;15.60;97.60;;;;;;5052010;28;20503;-57
2021/10/21 12:30:38;;;;;;;5.00;1.10;;;15.80;97.50;;;;;;5085394;28;20489;-57
2021/10/21 12:33:10;;;;;;;6.35;1.30;;;15.70;97.80;;;;;;5050612;28;20453;-57
2021/10/21 12:36:16;;;;;;;5.70;1.30;;;15.90;97.10;;;;;;5085285;28;20437;-57
2021/10/21 12:38:42;;;;;;;7.93;1.40;;;16.10;98.10;;;;;;5030348;28;20440;-57
2021/10/21 12:41:07;;;;;;;5.60;1.40;;;16.20;98.00;;;;;;5047744;28;20466;-57
2021/10/21 12:43:33;;;;;;;5.90;1.40;;;16.40;97.80;;;;;;5052735;28;20373;-57
2021/10/21 12:46:04;;;;;;;5.70;1.42;;;16.00;96.50;;;;;;5051632;28;20389;-57
2021/10/21 12:48:34;;;;;;;7.75;1.70;;;16.10;96.70;;;;;;5052244;28;20941;-57
2021/10/21 12:51:13;;;;;;;4.50;1.02;;;16.10;96.50;;;;;;5051892;28;20454;-57